Time;durP1;ratioP1;P1;durP2;ratioP2;P2;SDS_P1;SDS_P2;PMS_P1;PMS_P2;Temp;Humidity;BMP_temperature;BMP_pressure;BME280_temperature;BME280_humidity;BME280_pressure;Samples;Min_cycle;Max_cycle;Signal;HPM_P1;HPM_P2
2022/07/18 00:00:02;;;;;;;3.90;1.60;;;;;;;17.04;100.00;99978.27;1660262;85;21146;-71
2022/07/18 00:02:31;;;;;;;5.58;1.07;;;;;;;16.98;100.00;99979.69;1653432;85;21112;-72
2022/07/18 00:05:04;;;;;;;2.00;1.20;;;;;;;16.91;100.00;99980.87;1659022;85;21036;-72
2022/07/18 00:07:32;;;;;;;2.40;1.02;;;;;;;16.87;100.00;99981.36;1633394;85;21089;-71
2022/07/18 00:10:03;;;;;;;5.50;1.75;;;;;;;16.79;100.00;99990.05;1629411;85;21282;-71
2022/07/18 00:12:32;;;;;;;5.17;1.22;;;;;;;16.70;100.00;99993.56;1628291;87;21103;-71
2022/07/18 00:14:59;;;;;;;4.80;1.45;;;;;;;16.68;100.00;99989.75;1593953;87;21729;-72
2022/07/18 00:17:27;;;;;;;7.03;1.02;;;;;;;16.72;100.00;99996.21;1614287;88;21047;-72
2022/07/18 00:20:17;;;;;;;8.25;1.40;;;;;;;16.70;100.00;99990.19;1583337;88;21047;-70
2022/07/18 00:22:47;;;;;;;6.47;1.32;;;;;;;16.65;100.00;99984.89;1574493;89;21048;-70
2022/07/18 00:25:14;;;;;;;2.45;1.37;;;;;;;16.59;100.00;99982.09;1557993;90;21086;-71
2022/07/18 00:27:41;;;;;;;0.98;0.88;;;;;;;16.59;100.00;99987.66;1585281;90;21121;-73
2022/07/18 00:30:10;;;;;;;8.35;1.27;;;;;;;16.59;100.00;99984.30;1588179;90;21082;-73
2022/07/18 00:32:37;;;;;;;1.35;0.95;;;;;;;16.60;100.00;99993.47;1588297;90;21568;-70
2022/07/18 00:35:06;;;;;;;3.08;1.40;;;;;;;16.57;100.00;99988.01;1588270;88;21181;-71
2022/07/18 00:37:37;;;;;;;4.35;1.25;;;;;;;16.62;100.00;100000.29;1587529;90;21111;-72
2022/07/18 00:40:05;;;;;;;1.65;1.25;;;;;;;16.70;100.00;100002.70;1587872;90;21107;-68
2022/07/18 00:42:35;;;;;;;7.85;1.17;;;;;;;16.77;100.00;100002.11;1588153;90;21107;-68
2022/07/18 00:45:11;;;;;;;2.55;1.17;;;;;;;16.77;100.00;100000.14;1578850;89;21084;-72
2022/07/18 00:47:43;;;;;;;3.35;1.07;;;;;;;16.64;100.00;100000.76;1576770;90;21772;-72
2022/07/18 00:50:14;;;;;;;1.10;0.80;;;;;;;16.71;100.00;100003.52;1586827;90;21098;-70
2022/07/18 00:52:41;;;;;;;1.60;0.90;;;;;;;16.69;100.00;100003.88;1581651;89;21052;-72
2022/07/18 00:55:08;;;;;;;2.02;1.30;;;;;;;16.75;100.00;100003.85;1580565;88;21044;-65
2022/07/18 00:57:37;;;;;;;1.72;1.05;;;;;;;16.77;100.00;100001.53;1592046;88;21094;-66
2022/07/18 01:02:52;;;;;;;4.75;1.10;;;;;;;16.89;100.00;100009.62;1566043;88;21087;-71
2022/07/18 01:05:19;;;;;;;1.95;1.05;;;;;;;16.94;100.00;100015.55;1588756;88;21083;-67
2022/07/18 01:07:46;;;;;;;6.17;1.20;;;;;;;16.97;100.00;100011.48;1596353;88;21089;-67
2022/07/18 01:10:13;;;;;;;3.35;1.10;;;;;;;16.73;100.00;100015.11;1627511;86;21094;-67
2022/07/18 01:12:45;;;;;;;2.02;1.00;;;;;;;16.70;100.00;100008.27;1624647;86;21507;-68
2022/07/18 01:15:13;;;;;;;3.35;1.00;;;;;;;16.90;100.00;100007.91;1618676;88;21591;-66
2022/07/18 01:17:41;;;;;;;4.12;1.37;;;;;;;17.04;100.00;100015.84;1623188;86;21068;-67
2022/07/18 01:20:11;;;;;;;1.67;1.10;;;;;;;17.00;100.00;100021.91;1618757;86;21016;-70
2022/07/18 01:22:41;;;;;;;3.00;1.10;;;;;;;17.12;100.00;100019.70;1618104;87;21610;-71
2022/07/18 01:25:10;;;;;;;2.42;1.50;;;;;;;17.23;100.00;100015.03;1619182;86;21511;-67
2022/07/18 01:27:36;;;;;;;3.00;1.22;;;;;;;17.25;100.00;100020.45;1624383;87;21095;-68
2022/07/18 01:30:07;;;;;;;1.20;1.10;;;;;;;17.26;100.00;100013.71;1625896;87;21059;-70
2022/07/18 01:32:36;;;;;;;1.40;1.30;;;;;;;17.27;100.00;100017.31;1622174;88;21759;-73
2022/07/18 01:35:05;;;;;;;9.78;1.37;;;;;;;17.25;100.00;100019.64;1611461;88;21028;-67
2022/07/18 01:37:32;;;;;;;2.55;1.37;;;;;;;16.96;100.00;100020.98;1614488;88;21232;-69
2022/07/18 01:39:59;;;;;;;4.70;1.57;;;;;;;17.18;100.00;100027.20;1621327;88;21055;-70
2022/07/18 01:42:27;;;;;;;3.20;1.50;;;;;;;17.17;100.00;100016.42;1622130;87;21032;-70
2022/07/18 01:44:55;;;;;;;4.85;1.60;;;;;;;17.07;100.00;100022.70;1613466;88;21090;-71
2022/07/18 01:47:21;;;;;;;2.10;1.22;;;;;;;17.02;100.00;100020.98;1614017;88;21162;-67
2022/07/18 01:49:49;;;;;;;8.58;1.72;;;;;;;16.95;100.00;100021.33;1627925;86;21381;-69
2022/07/18 01:52:18;;;;;;;2.25;1.30;;;;;;;16.88;100.00;100019.14;1624536;86;21008;-67
2022/07/18 01:54:48;;;;;;;5.85;1.40;;;;;;;16.62;100.00;100024.50;1626505;86;21067;-71
2022/07/18 01:57:15;;;;;;;2.77;1.55;;;;;;;16.74;100.00;100026.46;1621978;86;21103;-69
2022/07/18 01:59:45;;;;;;;3.10;1.55;;;;;;;16.71;100.00;100032.73;1629327;86;21554;-74
2022/07/18 02:02:12;;;;;;;1.42;1.30;;;;;;;16.46;100.00;100044.70;1625717;88;21093;-72
2022/07/18 02:07:24;;;;;;;1.50;1.15;;;;;;;16.48;100.00;100049.31;1626962;86;21110;-74
2022/07/18 02:09:51;;;;;;;2.55;1.25;;;;;;;16.51;100.00;100051.39;1628025;86;21016;-69
2022/07/18 02:12:23;;;;;;;4.65;1.42;;;;;;;16.53;100.00;100057.42;1568325;89;21587;-72
2022/07/18 02:14:55;;;;;;;3.20;1.40;;;;;;;16.49;100.00;100053.73;1554286;92;21941;-72
2022/07/18 02:17:23;;;;;;;1.35;1.25;;;;;;;16.41;100.00;100055.45;1579736;90;21104;-74
2022/07/18 02:19:52;;;;;;;4.25;1.32;;;;;;;16.38;100.00;100057.55;1586079;90;21073;-68
2022/07/18 02:22:24;;;;;;;1.85;1.60;;;;;;;16.70;100.00;100047.81;1592393;89;21026;-71
2022/07/18 02:24:52;;;;;;;6.20;1.37;;;;;;;16.72;100.00;100049.67;1593342;90;21115;-73
2022/07/18 02:27:28;;;;;;;3.85;1.47;;;;;;;16.75;100.00;100055.33;1587987;88;22162;-69
2022/07/18 02:29:55;;;;;;;1.40;1.30;;;;;;;16.72;100.00;100049.07;1600212;88;21173;-70
2022/07/18 02:32:25;;;;;;;1.37;1.05;;;;;;;16.76;100.00;100053.36;1598890;88;21101;-75
2022/07/18 02:34:54;;;;;;;3.27;1.27;;;;;;;16.78;100.00;100052.44;1594134;89;21034;-69
2022/07/18 02:37:23;;;;;;;2.02;1.15;;;;;;;16.73;100.00;100048.50;1580231;90;21600;-70
2022/07/18 02:40:02;;;;;;;1.70;1.30;;;;;;;16.70;100.00;100051.39;1602628;88;21133;-73
2022/07/18 02:42:33;;;;;;;1.37;1.10;;;;;;;16.64;100.00;100054.18;1591443;89;21620;-68
2022/07/18 02:45:05;;;;;;;1.22;1.12;;;;;;;16.59;100.00;100053.84;1590526;90;21081;-70
2022/07/18 02:47:37;;;;;;;2.08;1.10;;;;;;;16.62;100.00;100055.92;1592956;90;21090;-68
2022/07/18 02:50:10;;;;;;;2.60;1.05;;;;;;;16.72;100.00;100050.46;1582473;88;21141;-69
2022/07/18 02:52:42;;;;;;;2.15;1.45;;;;;;;16.83;100.00;100048.59;1593017;89;21754;-68
2022/07/18 02:55:14;;;;;;;2.95;1.30;;;;;;;16.92;100.00;100053.47;1610418;87;21059;-68
2022/07/18 02:57:41;;;;;;;3.08;1.42;;;;;;;16.98;100.00;100056.80;1586315;88;21064;-73
2022/07/18 03:00:14;;;;;;;1.98;1.30;;;;;;;17.08;100.00;100055.50;1589408;90;21585;-69
2022/07/18 03:02:46;;;;;;;3.10;2.12;;;;;;;17.15;100.00;100061.32;1590431;90;21062;-68
2022/07/18 03:05:20;;;;;;;4.33;2.10;;;;;;;17.25;100.00;100064.19;1583801;90;21406;-68
2022/07/18 03:07:52;;;;;;;2.00;1.72;;;;;;;17.33;100.00;100058.27;1593642;88;21050;-70
2022/07/18 03:10:20;;;;;;;3.47;1.50;;;;;;;17.40;100.00;100055.66;1590777;88;21184;-70
2022/07/18 03:12:48;;;;;;;1.35;1.25;;;;;;;17.44;100.00;100066.34;1594084;88;21098;-73
2022/07/18 03:15:16;;;;;;;3.35;1.62;;;;;;;17.43;100.00;100068.91;1597757;89;21161;-69
2022/07/18 03:17:43;;;;;;;1.92;1.32;;;;;;;17.38;100.00;100068.55;1591526;90;21175;-70
2022/07/18 03:20:12;;;;;;;2.85;1.50;;;;;;;17.38;100.00;100071.94;1590688;88;21069;-73
2022/07/18 03:22:40;;;;;;;1.57;1.22;;;;;;;17.43;100.00;100083.41;1586645;90;21897;-74
2022/07/18 03:25:08;;;;;;;2.52;1.60;;;;;;;17.46;100.00;100087.69;1584294;90;21042;-67
2022/07/18 03:27:36;;;;;;;1.82;1.27;;;;;;;17.46;100.00;100084.91;1579651;89;21760;-75
2022/07/18 03:30:02;;;;;;;4.58;1.40;;;;;;;17.49;100.00;100088.94;1586761;90;21147;-71
2022/07/18 03:32:33;;;;;;;3.20;2.00;;;;;;;17.39;100.00;100085.51;1593947;88;21092;-68
2022/07/18 03:35:01;;;;;;;4.85;1.60;;;;;;;17.39;100.00;100083.30;1591107;89;21161;-68
2022/07/18 03:37:31;;;;;;;6.45;1.65;;;;;;;17.32;100.00;100083.08;1590944;90;21087;-73
2022/07/18 03:40:00;;;;;;;2.98;2.15;;;;;;;17.31;100.00;100089.82;1592512;90;21110;-70
2022/07/18 03:42:31;;;;;;;2.58;2.22;;;;;;;17.21;100.00;100091.95;1580946;88;21558;-72
2022/07/18 03:44:59;;;;;;;2.10;1.82;;;;;;;17.20;100.00;100086.13;1588396;90;21097;-69
2022/07/18 03:47:27;;;;;;;1.92;1.60;;;;;;;17.14;100.00;100088.94;1593720;88;21661;-73
2022/07/18 03:49:59;;;;;;;3.12;1.98;;;;;;;17.17;100.00;100088.23;1597544;88;21099;-68
2022/07/18 03:52:28;;;;;;;2.62;1.55;;;;;;;17.20;100.00;100088.91;1588003;88;21102;-71
2022/07/18 03:54:55;;;;;;;2.95;1.77;;;;;;;17.23;100.00;100088.20;1593354;89;21541;-72
2022/07/18 03:57:23;;;;;;;3.35;1.50;;;;;;;17.19;100.00;100097.05;1589790;88;21581;-72
2022/07/18 03:59:50;;;;;;;3.62;1.67;;;;;;;17.19;100.00;100085.09;1593972;88;21109;-70
2022/07/18 04:02:20;;;;;;;4.50;2.60;;;;;;;17.27;100.00;100091.92;1592945;88;21165;-75
2022/07/18 04:04:48;;;;;;;4.60;2.67;;;;;;;17.39;100.00;100087.47;1597678;87;21130;-72
2022/07/18 04:07:14;;;;;;;2.30;1.70;;;;;;;17.42;100.00;100092.94;1592047;88;21156;-72
2022/07/18 04:09:42;;;;;;;2.55;1.40;;;;;;;17.48;100.00;100092.33;1592746;88;21104;-71
2022/07/18 04:12:08;;;;;;;2.50;1.50;;;;;;;17.52;100.00;100095.20;1600056;88;21622;-72
2022/07/18 04:14:37;;;;;;;4.03;1.40;;;;;;;17.54;100.00;100087.91;1595172;87;21130;-72
2022/07/18 04:17:04;;;;;;;3.80;1.62;;;;;;;17.63;100.00;100088.55;1597895;88;21071;-70
2022/07/18 04:19:34;;;;;;;2.33;1.60;;;;;;;17.66;100.00;100087.05;1595583;87;21291;-68
2022/07/18 04:22:02;;;;;;;2.72;1.50;;;;;;;17.70;100.00;100092.13;1596293;87;21069;-68
2022/07/18 04:24:29;;;;;;;2.70;1.45;;;;;;;17.80;100.00;100090.79;1594617;89;21085;-74
2022/07/18 04:26:56;;;;;;;5.20;1.70;;;;;;;17.85;100.00;100092.75;1588889;89;21140;-70
2022/07/18 04:29:23;;;;;;;4.20;1.77;;;;;;;17.94;100.00;100095.95;1585368;90;21102;-67
2022/07/18 04:31:51;;;;;;;1.92;1.37;;;;;;;17.88;100.00;100089.24;1592516;89;21231;-71
2022/07/18 04:34:18;;;;;;;6.45;1.80;;;;;;;17.86;100.00;100092.17;1592657;89;21631;-69
2022/07/18 04:36:46;;;;;;;1.15;1.05;;;;;;;17.86;100.00;100092.17;1589931;89;21128;-72
2022/07/18 04:39:16;;;;;;;2.08;1.42;;;;;;;17.95;100.00;100090.59;1586931;90;21046;-71
2022/07/18 04:41:43;;;;;;;2.27;1.50;;;;;;;18.01;100.00;100091.98;1587389;90;21042;-70
2022/07/18 04:44:10;;;;;;;5.17;1.67;;;;;;;18.04;100.00;100096.02;1586780;90;21255;-69
2022/07/18 04:46:37;;;;;;;3.12;1.60;;;;;;;18.10;100.00;100103.75;1585911;89;21150;-71
2022/07/18 04:49:03;;;;;;;3.22;1.52;;;;;;;18.07;100.00;100107.84;1586612;89;21019;-74
2022/07/18 04:51:30;;;;;;;2.95;1.27;;;;;;;18.12;100.00;100111.19;1586483;89;21161;-68
2022/07/18 04:53:58;;;;;;;2.60;1.60;;;;;;;18.15;100.00;100107.49;1586851;89;21527;-74
2022/07/18 04:56:27;;;;;;;3.65;1.80;;;;;;;18.25;100.00;100111.94;1587715;89;21628;-75
2022/07/18 04:58:54;;;;;;;4.28;1.90;;;;;;;18.29;100.00;100105.67;1584690;89;21055;-74
2022/07/18 05:01:21;;;;;;;3.27;1.25;;;;;;;18.23;100.00;100111.52;1585897;90;21087;-72
2022/07/18 05:03:51;;;;;;;5.15;1.92;;;;;;;18.35;100.00;100115.37;1585001;89;21122;-71
2022/07/18 05:06:20;;;;;;;1.72;1.30;;;;;;;18.44;100.00;100112.42;1586670;88;21106;-72
2022/07/18 05:08:50;;;;;;;3.50;1.70;;;;;;;18.46;100.00;100117.03;1583504;90;21022;-74
2022/07/18 05:11:18;;;;;;;2.17;1.42;;;;;;;18.62;100.00;100105.88;1586025;90;21116;-71
2022/07/18 05:13:45;;;;;;;6.33;1.80;;;;;;;18.76;100.00;100112.41;1599862;89;21062;-71
2022/07/18 05:16:13;;;;;;;1.92;1.40;;;;;;;18.83;100.00;100112.55;1582519;89;21498;-76
2022/07/18 05:18:40;;;;;;;1.75;1.17;;;;;;;18.89;100.00;100113.67;1612112;87;21485;-72
2022/07/18 05:21:08;;;;;;;3.33;1.62;;;;;;;18.93;100.00;100109.81;1605737;87;22040;-71
2022/07/18 05:23:35;;;;;;;3.62;1.42;;;;;;;18.82;100.00;100108.73;1603036;89;21063;-72
2022/07/18 05:26:01;;;;;;;3.42;1.30;;;;;;;18.90;100.00;100109.12;1582976;89;21182;-72
2022/07/18 05:28:28;;;;;;;1.50;1.30;;;;;;;18.88;100.00;100107.88;1580390;90;21098;-71
2022/07/18 05:30:55;;;;;;;3.33;1.40;;;;;;;18.96;100.00;100098.48;1630790;87;21015;-74
2022/07/18 05:33:24;;;;;;;2.22;1.40;;;;;;;19.03;100.00;100104.25;1640925;87;21269;-69
2022/07/18 05:35:52;;;;;;;3.75;1.50;;;;;;;19.13;100.00;100106.27;1643973;87;21051;-73
2022/07/18 05:38:19;;;;;;;1.82;1.37;;;;;;;19.13;100.00;100108.48;1641871;85;21572;-75
2022/07/18 05:40:48;;;;;;;2.62;1.62;;;;;;;19.33;100.00;100112.69;1641791;85;21012;-75
2022/07/18 05:43:16;;;;;;;2.05;1.40;;;;;;;19.28;100.00;100112.97;1643710;86;21043;-72
2022/07/18 05:45:42;;;;;;;4.00;1.50;;;;;;;19.35;100.00;100107.55;1641921;87;21149;-73
2022/07/18 05:48:11;;;;;;;4.80;1.47;;;;;;;19.53;100.00;100114.11;1644339;85;21017;-74
2022/07/18 05:50:37;;;;;;;2.65;1.50;;;;;;;19.62;100.00;100108.31;1644747;85;21090;-75
2022/07/18 05:53:04;;;;;;;3.02;1.80;;;;;;;19.67;100.00;100113.00;1643946;87;21001;-74
2022/07/18 05:55:33;;;;;;;2.52;1.60;;;;;;;19.74;100.00;100112.33;1646115;85;21083;-69
2022/07/18 05:57:59;;;;;;;3.58;1.50;;;;;;;19.77;100.00;100109.41;1646834;85;21817;-73
2022/07/18 06:00:26;;;;;;;3.37;1.60;;;;;;;19.81;100.00;100113.88;1642587;85;21078;-72
2022/07/18 06:02:54;;;;;;;3.20;1.72;;;;;;;19.99;100.00;100111.21;1643597;85;21335;-69
2022/07/18 06:05:23;;;;;;;3.62;2.00;;;;;;;19.99;100.00;100119.02;1641325;85;21145;-72
2022/07/18 06:07:52;;;;;;;2.55;1.50;;;;;;;20.03;100.00;100113.47;1639826;85;21630;-72
2022/07/18 06:10:20;;;;;;;4.72;1.70;;;;;;;20.18;100.00;100116.78;1632652;85;21081;-71
2022/07/18 06:12:49;;;;;;;6.37;1.60;;;;;;;20.22;100.00;100116.03;1643928;86;21075;-74
2022/07/18 06:15:16;;;;;;;3.45;1.82;;;;;;;20.23;100.00;100110.09;1638305;87;21016;-71
2022/07/18 06:17:44;;;;;;;5.20;1.80;;;;;;;20.37;100.00;100108.73;1626836;85;21033;-72
2022/07/18 06:20:12;;;;;;;4.17;1.90;;;;;;;20.41;100.00;100109.58;1646187;85;21095;-75
2022/07/18 06:22:38;;;;;;;5.55;1.72;;;;;;;20.48;100.00;100108.89;1638988;87;21302;-71
2022/07/18 06:25:07;;;;;;;4.97;2.17;;;;;;;20.39;100.00;100105.76;1629102;87;21072;-76
2022/07/18 06:27:36;;;;;;;2.50;1.70;;;;;;;20.50;100.00;100107.35;1637458;85;21580;-70
2022/07/18 06:30:07;;;;;;;1.45;1.35;;;;;;;20.57;100.00;100110.05;1640195;87;21048;-75
2022/07/18 06:32:34;;;;;;;4.62;1.52;;;;;;;20.63;100.00;100099.55;1624197;86;20992;-74
2022/07/18 06:35:18;;;;;;;2.83;1.75;;;;;;;20.67;100.00;100098.22;1641167;85;21167;-72
2022/07/18 06:37:45;;;;;;;2.37;1.50;;;;;;;20.84;100.00;100090.47;1645524;85;20952;-75
2022/07/18 06:40:12;;;;;;;3.35;1.45;;;;;;;20.83;100.00;100096.65;1637528;87;21028;-73
2022/07/18 06:42:38;;;;;;;2.87;1.22;;;;;;;20.87;100.00;100094.72;1646102;87;21067;-73
2022/07/18 06:45:07;;;;;;;1.87;1.67;;;;;;;20.89;100.00;100089.56;1640472;86;21333;-72
2022/07/18 06:47:35;;;;;;;4.12;1.60;;;;;;;21.06;100.00;100089.41;1645813;86;21114;-72
2022/07/18 06:50:02;;;;;;;2.00;1.30;;;;;;;20.91;100.00;100096.18;1638630;85;21131;-75
2022/07/18 06:52:31;;;;;;;1.55;1.45;;;;;;;21.02;100.00;100092.96;1636224;87;21083;-73
2022/07/18 06:54:57;;;;;;;3.33;1.60;;;;;;;21.28;100.00;100089.92;1638888;87;21104;-74
2022/07/18 06:57:24;;;;;;;2.95;1.35;;;;;;;21.45;100.00;100091.11;1628854;87;21068;-76
2022/07/18 06:59:53;;;;;;;3.00;1.70;;;;;;;21.46;100.00;100091.34;1630539;87;21116;-74
2022/07/18 07:02:20;;;;;;;3.67;1.50;;;;;;;21.59;100.00;100087.68;1638510;85;21060;-72
2022/07/18 07:04:48;;;;;;;4.05;1.90;;;;;;;21.73;100.00;100088.45;1638637;85;21151;-74
2022/07/18 07:07:18;;;;;;;2.47;1.55;;;;;;;21.75;100.00;100090.28;1636691;85;21130;-70
2022/07/18 07:09:48;;;;;;;3.33;1.25;;;;;;;21.75;100.00;100093.08;1640099;87;21064;-70
2022/07/18 07:12:14;;;;;;;2.80;1.35;;;;;;;21.83;100.00;100089.78;1642690;87;21096;-74
2022/07/18 07:14:44;;;;;;;4.70;1.80;;;;;;;21.94;100.00;100087.11;1639860;86;21119;-71
2022/07/18 07:17:10;;;;;;;3.30;1.70;;;;;;;21.97;100.00;100089.92;1645325;86;21103;-74
2022/07/18 07:19:42;;;;;;;3.47;1.70;;;;;;;22.10;100.00;100087.66;1645077;85;21051;-70
2022/07/18 07:22:08;;;;;;;5.05;1.60;;;;;;;22.13;100.00;100086.89;1653472;85;21048;-69
2022/07/18 07:24:36;;;;;;;2.45;1.27;;;;;;;22.16;100.00;100088.72;1656228;86;21871;-72
2022/07/18 07:27:05;;;;;;;3.30;1.00;;;;;;;22.30;100.00;100088.02;1656036;86;21134;-73
2022/07/18 07:29:39;;;;;;;3.37;1.25;;;;;;;22.42;100.00;100085.52;1655855;86;21102;-71
2022/07/18 07:32:07;;;;;;;1.50;1.10;;;;;;;22.44;100.00;100071.91;1645093;86;21550;-74
2022/07/18 07:34:34;;;;;;;1.82;1.07;;;;;;;22.31;100.00;100073.63;1650729;85;21070;-73
2022/07/18 07:37:03;;;;;;;2.67;1.30;;;;;;;22.28;100.00;100076.40;1655939;86;21567;-70
2022/07/18 07:39:31;;;;;;;1.15;1.00;;;;;;;22.35;100.00;100079.24;1655907;86;21032;-74
2022/07/18 07:41:59;;;;;;;2.40;1.17;;;;;;;22.47;100.00;100071.94;1656077;85;21062;-69
2022/07/18 07:44:25;;;;;;;2.20;0.98;;;;;;;22.46;100.00;100077.94;1655965;86;21056;-75
2022/07/18 07:46:52;;;;;;;2.27;1.37;;;;;;;22.41;100.00;100077.71;1655848;85;21107;-74
2022/07/18 07:49:20;;;;;;;2.80;1.37;;;;;;;22.34;100.00;100076.23;1656203;85;21272;-71
2022/07/18 07:51:46;;;;;;;0.90;0.85;;;;;;;22.41;100.00;100074.91;1656726;85;21047;-74
2022/07/18 07:54:15;;;;;;;1.60;1.00;;;;;;;22.49;100.00;100070.95;1651621;85;21012;-78
2022/07/18 07:56:45;;;;;;;1.42;1.10;;;;;;;22.65;100.00;100076.11;1654471;85;21042;-73
2022/07/18 07:59:13;;;;;;;3.77;0.82;;;;;;;22.87;100.00;100075.66;1658004;85;21095;-72
2022/07/18 08:01:42;;;;;;;4.83;1.37;;;;;;;22.79;100.00;100070.58;1643671;86;21195;-73
2022/07/18 08:04:09;;;;;;;1.10;0.85;;;;;;;22.83;100.00;100076.22;1649802;85;21043;-68
2022/07/18 08:06:36;;;;;;;1.27;1.02;;;;;;;22.88;100.00;100077.87;1656043;85;21571;-77
2022/07/18 08:09:06;;;;;;;3.30;0.90;;;;;;;22.90;100.00;100072.06;1649338;85;21094;-75
2022/07/18 08:11:33;;;;;;;1.42;0.88;;;;;;;22.95;100.00;100072.28;1656407;85;21524;-76
2022/07/18 08:14:00;;;;;;;2.05;0.95;;;;;;;23.02;100.00;100065.90;1643272;86;21312;-76
2022/07/18 08:16:27;;;;;;;2.75;0.93;;;;;;;23.02;100.00;100064.50;1653173;85;21106;-73
2022/07/18 08:18:54;;;;;;;3.08;1.05;;;;;;;22.99;100.00;100066.10;1655237;85;21032;-73
2022/07/18 08:21:21;;;;;;;2.35;1.05;;;;;;;23.05;100.00;100064.52;1632211;86;21035;-77
2022/07/18 08:23:48;;;;;;;1.70;0.85;;;;;;;23.10;100.00;100061.34;1643546;87;21080;-79
2022/07/18 08:26:19;;;;;;;1.07;0.80;;;;;;;23.14;100.00;100059.14;1629382;87;21043;-77
2022/07/18 08:28:46;;;;;;;3.45;0.95;;;;;;;23.27;100.00;100060.41;1640979;87;21043;-71
2022/07/18 08:31:12;;;;;;;3.50;0.80;;;;;;;23.35;100.00;100063.45;1643781;87;21111;-76
2022/07/18 08:33:48;;;;;;;1.32;0.75;;;;;;;23.41;100.00;100069.53;1646608;87;21541;-73
2022/07/18 08:36:20;;;;;;;4.03;0.70;;;;;;;23.51;100.00;100060.93;1646598;86;21044;-72
2022/07/18 08:38:57;;;;;;;1.35;0.57;;;;;;;23.70;100.00;100061.20;1635735;85;21588;-76
2022/07/18 08:41:26;;;;;;;3.33;0.60;;;;;;;23.62;100.00;100062.97;1642746;85;21127;-79
2022/07/18 08:43:53;;;;;;;0.75;0.68;;;;;;;23.58;100.00;100060.14;1604772;87;21075;-70
2022/07/18 08:46:21;;;;;;;0.65;0.60;;;;;;;23.63;100.00;100061.79;1642154;85;21341;-76
2022/07/18 08:48:51;;;;;;;2.90;0.80;;;;;;;23.68;100.00;100065.59;1645144;85;21119;-77
2022/07/18 08:51:18;;;;;;;2.65;0.72;;;;;;;23.68;100.00;100063.59;1644017;87;21137;-74
2022/07/18 08:53:50;;;;;;;1.52;0.68;;;;;;;23.72;100.00;100063.61;1639356;85;21119;-74
2022/07/18 08:56:16;;;;;;;2.00;0.57;;;;;;;23.83;100.00;100068.65;1632353;87;21058;-74
2022/07/18 08:58:43;;;;;;;1.15;0.50;;;;;;;23.91;100.00;100062.45;1643528;85;21334;-70
2022/07/18 09:01:10;;;;;;;3.35;0.53;;;;;;;23.98;100.00;100059.44;1644059;87;21107;-69
2022/07/18 09:03:36;;;;;;;0.60;0.57;;;;;;;24.04;100.00;100058.64;1648350;85;21248;-73
2022/07/18 09:06:13;;;;;;;3.27;0.80;;;;;;;24.04;100.00;100054.42;1640337;87;21048;-75
2022/07/18 09:09:00;;;;;;;1.45;0.65;;;;;;;23.90;100.00;100061.45;1643899;87;21563;-79
2022/07/18 09:11:27;;;;;;;0.57;0.53;;;;;;;23.92;100.00;100057.61;1630753;85;21107;-76
2022/07/18 09:13:54;;;;;;;3.70;0.53;;;;;;;24.01;100.00;100055.22;1642792;85;21505;-70
2022/07/18 09:16:21;;;;;;;0.40;0.30;;;;;;;24.04;100.00;100058.64;1642328;85;21132;-73
2022/07/18 09:18:49;;;;;;;4.92;0.47;;;;;;;24.02;100.00;100052.60;1638828;87;21095;-72
2022/07/18 09:21:22;;;;;;;1.55;0.50;;;;;;;23.94;100.00;100050.98;1640225;85;21076;-70
2022/07/18 09:23:52;;;;;;;0.68;0.42;;;;;;;23.90;100.00;100048.16;1616765;86;21105;-74
2022/07/18 09:26:39;;;;;;;0.55;0.42;;;;;;;24.01;100.00;100052.41;1619171;85;21053;-68
2022/07/18 09:29:09;;;;;;;4.03;0.50;;;;;;;24.10;100.00;100052.61;1612139;86;21225;-67
2022/07/18 09:31:36;;;;;;;4.30;0.60;;;;;;;24.12;100.00;100048.18;1598301;88;21016;-73
2022/07/18 09:34:06;;;;;;;2.17;0.65;;;;;;;24.27;100.00;100046.23;1620692;86;21071;-76
2022/07/18 09:36:36;;;;;;;0.75;0.40;;;;;;;24.02;100.00;100046.98;1618365;86;21031;-74
2022/07/18 09:39:19;;;;;;;1.52;0.53;;;;;;;23.86;100.00;100050.78;1619635;86;21091;-76
2022/07/18 09:41:46;;;;;;;0.45;0.40;;;;;;;23.80;100.00;100046.95;1618863;86;21872;-75
2022/07/18 09:44:20;;;;;;;0.85;0.50;;;;;;;23.91;100.00;100048.39;1615215;87;21051;-73
2022/07/18 09:47:04;;;;;;;2.58;0.40;;;;;;;23.97;98.35;100047.99;1611661;88;21044;-74
2022/07/18 09:49:32;;;;;;;0.55;0.50;;;;;;;23.87;100.00;100045.34;1617862;88;21032;-73
2022/07/18 09:52:05;;;;;;;0.40;0.30;;;;;;;24.10;100.00;100045.58;1618998;86;21056;-73
2022/07/18 09:54:40;;;;;;;0.80;0.30;;;;;;;24.15;100.00;100051.63;1625691;86;21491;-77
2022/07/18 09:57:08;;;;;;;0.62;0.20;;;;;;;24.09;100.00;100049.61;1616363;88;22175;-75
2022/07/18 09:59:38;;;;;;;4.10;0.70;;;;;;;24.21;100.00;100045.62;1618559;86;21072;-71
2022/07/18 10:02:07;;;;;;;1.77;0.47;;;;;;;24.35;98.87;100047.62;1616415;86;21591;-76
2022/07/18 10:04:35;;;;;;;3.33;0.40;;;;;;;24.43;100.00;100046.41;1617053;86;21098;-71
2022/07/18 10:07:02;;;;;;;1.20;0.47;;;;;;;24.64;96.76;100054.63;1618761;86;21338;-71
2022/07/18 10:09:32;;;;;;;0.40;0.40;;;;;;;24.72;94.92;100052.00;1617998;86;21032;-75
2022/07/18 10:11:59;;;;;;;2.00;0.45;;;;;;;24.76;97.55;100049.18;1612982;88;21103;-74
2022/07/18 10:14:30;;;;;;;1.27;0.35;;;;;;;24.91;99.20;100045.16;1561794;90;21594;-72
2022/07/18 10:17:00;;;;;;;0.53;0.40;;;;;;;25.05;100.00;100046.32;1565831;91;21104;-74
2022/07/18 10:19:27;;;;;;;0.10;0.10;;;;;;;25.18;97.40;100040.25;1566286;90;22128;-76
2022/07/18 10:21:55;;;;;;;1.05;0.35;;;;;;;25.33;98.88;100033.34;1564393;90;21127;-77
2022/07/18 10:24:24;;;;;;;0.45;0.28;;;;;;;25.37;89.54;100031.88;1597198;89;21087;-71
2022/07/18 10:27:19;;;;;;;0.80;0.30;;;;;;;25.30;92.68;100036.95;1585626;90;21069;-71
2022/07/18 10:30:11;;;;;;;3.47;0.50;;;;;;;25.19;88.28;100042.66;1589880;90;21189;-75
2022/07/18 10:32:42;;;;;;;0.55;0.30;;;;;;;25.19;92.38;100036.20;1579823;89;21129;-78
2022/07/18 10:35:10;;;;;;;0.78;0.30;;;;;;;25.35;94.80;100032.92;1592139;90;21619;-73
2022/07/18 10:37:41;;;;;;;2.00;0.60;;;;;;;25.37;91.17;100034.70;1593395;90;21067;-72
2022/07/18 10:40:28;;;;;;;2.90;0.30;;;;;;;25.38;89.95;100030.69;1586210;90;21065;-75
2022/07/18 10:43:36;;;;;;;0.47;0.30;;;;;;;25.42;89.98;100030.67;1587314;90;21076;-71
2022/07/18 10:46:04;;;;;;;0.88;0.42;;;;;;;25.34;92.56;100029.30;1592074;88;21131;-73
2022/07/18 10:48:45;;;;;;;0.45;0.20;;;;;;;25.34;96.61;100018.02;1596966;88;21081;-69
2022/07/18 10:51:15;;;;;;;1.22;0.37;;;;;;;25.44;100.00;100026.81;1593313;88;21067;-76
2022/07/18 10:54:04;;;;;;;1.85;0.55;;;;;;;25.58;95.88;100025.34;1592409;88;21032;-76
2022/07/18 10:56:41;;;;;;;1.65;0.68;;;;;;;25.63;93.10;100025.51;1593459;88;21056;-73
2022/07/18 10:59:24;;;;;;;0.40;0.35;;;;;;;25.65;94.83;100028.76;1590084;88;21753;-75
2022/07/18 11:01:53;;;;;;;0.28;0.28;;;;;;;25.72;96.75;100025.09;1592746;88;21087;-70
2022/07/18 11:04:32;;;;;;;1.07;0.33;;;;;;;25.79;91.07;100018.59;1594728;88;21028;-74
2022/07/18 11:07:13;;;;;;;0.40;0.30;;;;;;;25.86;94.01;100017.14;1593582;88;21516;-73
2022/07/18 11:09:47;;;;;;;0.62;0.37;;;;;;;26.04;97.36;100014.77;1602461;88;21065;-71
2022/07/18 11:12:27;;;;;;;5.50;0.85;;;;;;;26.10;92.58;100023.02;1589701;90;21922;-78
2022/07/18 11:15:10;;;;;;;2.55;0.47;;;;;;;26.01;89.84;100023.48;1598103;88;21117;-75
2022/07/18 11:18:00;;;;;;;1.37;0.30;;;;;;;25.91;90.39;100025.17;1590337;89;21051;-73
2022/07/18 11:20:40;;;;;;;0.60;0.40;;;;;;;25.76;85.53;100022.43;1581432;88;21103;-73
2022/07/18 11:23:21;;;;;;;1.70;0.25;;;;;;;25.39;86.30;100018.19;1611763;87;21053;-77
2022/07/18 11:25:50;;;;;;;0.55;0.33;;;;;;;25.20;86.08;100011.05;1592765;88;21174;-73
2022/07/18 11:28:16;;;;;;;4.90;1.37;;;;;;;24.92;89.93;100016.38;1599346;88;21025;-75
2022/07/18 11:30:43;;;;;;;0.60;0.50;;;;;;;24.91;90.64;100018.98;1592750;88;21712;-78
2022/07/18 11:33:25;;;;;;;1.05;0.28;;;;;;;24.72;94.13;100013.98;1592575;88;21102;-76
2022/07/18 11:35:55;;;;;;;2.40;0.60;;;;;;;24.76;91.90;100019.61;1635727;85;21539;-75